sensor_id;sensor_type;location;lat;lon;timestamp;P1;durP1;ratioP1;P2;durP2;ratioP2
52574;SDS011;38468;48.114;-1.684;2023-09-30T00:01:15;10.13;;;3.33;;
52574;SDS011;38468;48.114;-1.684;2023-09-30T00:05:41;7.43;;;3.28;;
52574;SDS011;38468;48.114;-1.684;2023-09-30T00:07:42;13.20;;;3.78;;
52574;SDS011;38468;48.114;-1.684;2023-09-30T00:09:43;10.23;;;3.08;;
52574;SDS011;38468;48.114;-1.684;2023-09-30T00:11:43;10.90;;;3.60;;
52574;SDS011;38468;48.114;-1.684;2023-09-30T00:13:44;6.95;;;3.45;;
52574;SDS011;38468;48.114;-1.684;2023-09-30T00:15:45;8.40;;;3.03;;
52574;SDS011;38468;48.114;-1.684;2023-09-30T00:18:02;10.02;;;3.92;;
52574;SDS011;38468;48.114;-1.684;2023-09-30T00:20:04;13.07;;;3.50;;
52574;SDS011;38468;48.114;-1.684;2023-09-30T00:22:05;13.10;;;3.90;;
52574;SDS011;38468;48.114;-1.684;2023-09-30T00:24:06;11.93;;;3.42;;
52574;SDS011;38468;48.114;-1.684;2023-09-30T00:26:07;8.88;;;2.80;;
52574;SDS011;38468;48.114;-1.684;2023-09-30T00:28:08;8.35;;;2.90;;
52574;SDS011;38468;48.114;-1.684;2023-09-30T00:30:08;11.73;;;3.40;;
52574;SDS011;38468;48.114;-1.684;2023-09-30T00:32:09;6.57;;;3.03;;
52574;SDS011;38468;48.114;-1.684;2023-09-30T00:37:03;17.58;;;4.43;;
52574;SDS011;38468;48.114;-1.684;2023-09-30T00:39:04;10.50;;;3.33;;
52574;SDS011;38468;48.114;-1.684;2023-09-30T00:41:04;11.68;;;3.55;;
52574;SDS011;38468;48.114;-1.684;2023-09-30T00:43:05;6.35;;;3.10;;
52574;SDS011;38468;48.114;-1.684;2023-09-30T00:45:07;6.60;;;2.42;;
52574;SDS011;38468;48.114;-1.684;2023-09-30T00:47:11;14.77;;;2.92;;
52574;SDS011;38468;48.114;-1.684;2023-09-30T00:49:12;11.50;;;3.05;;
52574;SDS011;38468;48.114;-1.684;2023-09-30T00:51:14;5.43;;;3.30;;
52574;SDS011;38468;48.114;-1.684;2023-09-30T00:53:15;10.57;;;3.60;;
52574;SDS011;38468;48.114;-1.684;2023-09-30T00:55:16;8.82;;;2.88;;
52574;SDS011;38468;48.114;-1.684;2023-09-30T00:57:19;4.75;;;2.08;;
52574;SDS011;38468;48.114;-1.684;2023-09-30T00:59:20;9.07;;;2.97;;
52574;SDS011;38468;48.114;-1.684;2023-09-30T01:01:22;11.77;;;3.03;;
52574;SDS011;38468;48.114;-1.684;2023-09-30T01:03:23;12.75;;;3.75;;
52574;SDS011;38468;48.114;-1.684;2023-09-30T01:05:24;10.30;;;4.03;;
52574;SDS011;38468;48.114;-1.684;2023-09-30T01:07:24;11.38;;;3.83;;
52574;SDS011;38468;48.114;-1.684;2023-09-30T01:09:25;12.25;;;3.58;;
52574;SDS011;38468;48.114;-1.684;2023-09-30T01:11:26;11.30;;;3.15;;
52574;SDS011;38468;48.114;-1.684;2023-09-30T01:13:33;16.08;;;3.92;;
52574;SDS011;38468;48.114;-1.684;2023-09-30T01:15:37;9.35;;;3.15;;
52574;SDS011;38468;48.114;-1.684;2023-09-30T01:20:07;13.52;;;4.35;;
52574;SDS011;38468;48.114;-1.684;2023-09-30T01:22:08;10.10;;;2.38;;
52574;SDS011;38468;48.114;-1.684;2023-09-30T01:24:09;8.60;;;2.75;;
52574;SDS011;38468;48.114;-1.684;2023-09-30T01:26:11;10.32;;;2.80;;
52574;SDS011;38468;48.114;-1.684;2023-09-30T01:28:12;10.68;;;3.67;;
52574;SDS011;38468;48.114;-1.684;2023-09-30T01:30:14;9.70;;;2.60;;
52574;SDS011;38468;48.114;-1.684;2023-09-30T01:32:15;10.18;;;3.05;;
52574;SDS011;38468;48.114;-1.684;2023-09-30T01:37:13;10.60;;;3.13;;
52574;SDS011;38468;48.114;-1.684;2023-09-30T01:39:14;16.02;;;2.65;;
52574;SDS011;38468;48.114;-1.684;2023-09-30T01:41:15;9.95;;;3.33;;
52574;SDS011;38468;48.114;-1.684;2023-09-30T01:43:17;9.18;;;2.78;;
52574;SDS011;38468;48.114;-1.684;2023-09-30T01:45:18;8.35;;;2.38;;
52574;SDS011;38468;48.114;-1.684;2023-09-30T01:47:18;9.32;;;2.60;;
52574;SDS011;38468;48.114;-1.684;2023-09-30T01:49:19;11.43;;;2.85;;
52574;SDS011;38468;48.114;-1.684;2023-09-30T01:51:20;6.70;;;2.72;;
52574;SDS011;38468;48.114;-1.684;2023-09-30T01:53:21;10.40;;;2.72;;
52574;SDS011;38468;48.114;-1.684;2023-09-30T01:55:22;15.52;;;3.00;;
52574;SDS011;38468;48.114;-1.684;2023-09-30T01:57:23;17.13;;;3.28;;
52574;SDS011;38468;48.114;-1.684;2023-09-30T01:59:24;8.07;;;2.72;;
52574;SDS011;38468;48.114;-1.684;2023-09-30T02:01:24;11.65;;;3.00;;
52574;SDS011;38468;48.114;-1.684;2023-09-30T02:09:27;7.90;;;2.70;;
52574;SDS011;38468;48.114;-1.684;2023-09-30T02:11:28;5.63;;;2.72;;
52574;SDS011;38468;48.114;-1.684;2023-09-30T02:13:28;11.15;;;2.88;;
52574;SDS011;38468;48.114;-1.684;2023-09-30T02:15:29;8.27;;;3.08;;
52574;SDS011;38468;48.114;-1.684;2023-09-30T02:17:30;10.23;;;3.50;;
52574;SDS011;38468;48.114;-1.684;2023-09-30T02:22:27;11.07;;;2.95;;
52574;SDS011;38468;48.114;-1.684;2023-09-30T02:24:28;14.30;;;2.78;;
52574;SDS011;38468;48.114;-1.684;2023-09-30T02:26:29;8.85;;;3.83;;
52574;SDS011;38468;48.114;-1.684;2023-09-30T02:28:29;5.28;;;2.90;;
52574;SDS011;38468;48.114;-1.684;2023-09-30T02:30:32;7.47;;;3.33;;
52574;SDS011;38468;48.114;-1.684;2023-09-30T02:32:33;10.80;;;2.55;;
52574;SDS011;38468;48.114;-1.684;2023-09-30T02:34:33;7.35;;;2.17;;
52574;SDS011;38468;48.114;-1.684;2023-09-30T02:36:35;9.35;;;2.30;;
52574;SDS011;38468;48.114;-1.684;2023-09-30T02:38:39;6.50;;;3.35;;
52574;SDS011;38468;48.114;-1.684;2023-09-30T02:40:41;11.85;;;3.88;;
52574;SDS011;38468;48.114;-1.684;2023-09-30T02:42:45;12.57;;;2.75;;
52574;SDS011;38468;48.114;-1.684;2023-09-30T02:44:47;6.97;;;2.20;;
52574;SDS011;38468;48.114;-1.684;2023-09-30T02:46:48;4.05;;;1.95;;
52574;SDS011;38468;48.114;-1.684;2023-09-30T02:51:17;4.97;;;2.53;;
52574;SDS011;38468;48.114;-1.684;2023-09-30T02:53:18;10.30;;;3.65;;
52574;SDS011;38468;48.114;-1.684;2023-09-30T02:55:18;7.00;;;2.67;;
52574;SDS011;38468;48.114;-1.684;2023-09-30T02:57:19;9.30;;;3.10;;
52574;SDS011;38468;48.114;-1.684;2023-09-30T02:59:20;6.17;;;2.20;;
52574;SDS011;38468;48.114;-1.684;2023-09-30T03:01:22;12.50;;;3.30;;
52574;SDS011;38468;48.114;-1.684;2023-09-30T03:03:28;7.18;;;2.20;;
52574;SDS011;38468;48.114;-1.684;2023-09-30T03:05:29;9.52;;;2.92;;
52574;SDS011;38468;48.114;-1.684;2023-09-30T03:07:33;5.05;;;2.33;;
52574;SDS011;38468;48.114;-1.684;2023-09-30T03:09:34;10.38;;;2.53;;
52574;SDS011;38468;48.114;-1.684;2023-09-30T03:11:35;9.05;;;2.28;;
52574;SDS011;38468;48.114;-1.684;2023-09-30T03:13:36;8.25;;;3.15;;
52574;SDS011;38468;48.114;-1.684;2023-09-30T03:15:37;6.38;;;2.83;;
52574;SDS011;38468;48.114;-1.684;2023-09-30T03:17:38;8.00;;;2.03;;
52574;SDS011;38468;48.114;-1.684;2023-09-30T03:19:51;10.63;;;2.35;;
52574;SDS011;38468;48.114;-1.684;2023-09-30T03:21:52;10.68;;;2.67;;
52574;SDS011;38468;48.114;-1.684;2023-09-30T03:23:52;13.02;;;2.25;;
52574;SDS011;38468;48.114;-1.684;2023-09-30T03:25:55;11.63;;;2.47;;
52574;SDS011;38468;48.114;-1.684;2023-09-30T03:27:56;7.55;;;2.45;;
52574;SDS011;38468;48.114;-1.684;2023-09-30T03:29:57;5.78;;;2.35;;
52574;SDS011;38468;48.114;-1.684;2023-09-30T03:31:58;7.80;;;2.38;;
52574;SDS011;38468;48.114;-1.684;2023-09-30T03:39:43;10.25;;;2.75;;
52574;SDS011;38468;48.114;-1.684;2023-09-30T03:41:43;9.30;;;2.22;;
52574;SDS011;38468;48.114;-1.684;2023-09-30T03:43:44;11.20;;;3.53;;
52574;SDS011;38468;48.114;-1.684;2023-09-30T03:45:45;9.93;;;3.10;;
52574;SDS011;38468;48.114;-1.684;2023-09-30T03:47:45;10.13;;;2.65;;
52574;SDS011;38468;48.114;-1.684;2023-09-30T03:52:48;20.27;;;3.80;;
52574;SDS011;38468;48.114;-1.684;2023-09-30T03:54:49;9.05;;;1.88;;
52574;SDS011;38468;48.114;-1.684;2023-09-30T03:56:50;6.25;;;2.15;;
52574;SDS011;38468;48.114;-1.684;2023-09-30T03:58:50;5.97;;;2.05;;
52574;SDS011;38468;48.114;-1.684;2023-09-30T04:00:53;9.80;;;2.58;;
52574;SDS011;38468;48.114;-1.684;2023-09-30T04:02:54;5.65;;;2.55;;
52574;SDS011;38468;48.114;-1.684;2023-09-30T04:05:03;7.15;;;2.47;;
52574;SDS011;38468;48.114;-1.684;2023-09-30T04:07:05;8.63;;;2.10;;
52574;SDS011;38468;48.114;-1.684;2023-09-30T04:09:06;7.68;;;2.25;;
52574;SDS011;38468;48.114;-1.684;2023-09-30T04:11:10;17.05;;;3.72;;
52574;SDS011;38468;48.114;-1.684;2023-09-30T04:13:17;10.20;;;2.75;;
52574;SDS011;38468;48.114;-1.684;2023-09-30T04:15:19;16.23;;;4.00;;
52574;SDS011;38468;48.114;-1.684;2023-09-30T04:17:20;4.95;;;2.00;;
52574;SDS011;38468;48.114;-1.684;2023-09-30T04:19:23;6.30;;;2.15;;
52574;SDS011;38468;48.114;-1.684;2023-09-30T04:21:23;6.55;;;2.53;;
52574;SDS011;38468;48.114;-1.684;2023-09-30T04:23:24;7.55;;;1.77;;
52574;SDS011;38468;48.114;-1.684;2023-09-30T04:25:25;5.67;;;2.00;;
52574;SDS011;38468;48.114;-1.684;2023-09-30T04:27:26;11.95;;;2.53;;
52574;SDS011;38468;48.114;-1.684;2023-09-30T04:29:27;6.65;;;2.83;;
52574;SDS011;38468;48.114;-1.684;2023-09-30T04:31:28;12.50;;;2.90;;
52574;SDS011;38468;48.114;-1.684;2023-09-30T04:40:48;6.82;;;2.35;;
52574;SDS011;38468;48.114;-1.684;2023-09-30T04:42:51;5.28;;;2.10;;
52574;SDS011;38468;48.114;-1.684;2023-09-30T04:44:54;6.75;;;2.38;;
52574;SDS011;38468;48.114;-1.684;2023-09-30T04:46:58;11.48;;;2.45;;
52574;SDS011;38468;48.114;-1.684;2023-09-30T04:49:00;10.38;;;3.15;;
52574;SDS011;38468;48.114;-1.684;2023-09-30T04:53:06;7.30;;;2.63;;
52574;SDS011;38468;48.114;-1.684;2023-09-30T04:55:08;9.60;;;3.15;;
52574;SDS011;38468;48.114;-1.684;2023-09-30T04:57:08;11.35;;;3.40;;
52574;SDS011;38468;48.114;-1.684;2023-09-30T04:59:09;10.30;;;3.42;;
52574;SDS011;38468;48.114;-1.684;2023-09-30T05:01:10;9.27;;;3.15;;
52574;SDS011;38468;48.114;-1.684;2023-09-30T05:03:10;9.05;;;3.20;;
52574;SDS011;38468;48.114;-1.684;2023-09-30T05:05:12;7.13;;;2.45;;
52574;SDS011;38468;48.114;-1.684;2023-09-30T05:07:14;14.73;;;4.10;;
52574;SDS011;38468;48.114;-1.684;2023-09-30T05:09:15;10.73;;;2.63;;
52574;SDS011;38468;48.114;-1.684;2023-09-30T05:11:16;10.02;;;2.10;;
52574;SDS011;38468;48.114;-1.684;2023-09-30T05:13:16;10.85;;;3.35;;
52574;SDS011;38468;48.114;-1.684;2023-09-30T05:15:17;8.80;;;2.17;;
52574;SDS011;38468;48.114;-1.684;2023-09-30T05:17:19;4.15;;;1.80;;
52574;SDS011;38468;48.114;-1.684;2023-09-30T05:21:49;9.82;;;2.80;;
52574;SDS011;38468;48.114;-1.684;2023-09-30T05:23:50;7.63;;;1.92;;
52574;SDS011;38468;48.114;-1.684;2023-09-30T05:25:50;10.38;;;3.50;;
52574;SDS011;38468;48.114;-1.684;2023-09-30T05:27:51;4.75;;;2.28;;
52574;SDS011;38468;48.114;-1.684;2023-09-30T05:29:52;8.82;;;3.17;;
52574;SDS011;38468;48.114;-1.684;2023-09-30T05:31:53;7.32;;;2.67;;
52574;SDS011;38468;48.114;-1.684;2023-09-30T05:33:53;7.30;;;1.85;;
52574;SDS011;38468;48.114;-1.684;2023-09-30T05:35:55;4.60;;;2.40;;
52574;SDS011;38468;48.114;-1.684;2023-09-30T05:37:55;8.50;;;2.63;;
52574;SDS011;38468;48.114;-1.684;2023-09-30T05:39:56;9.00;;;2.58;;
52574;SDS011;38468;48.114;-1.684;2023-09-30T05:41:59;10.05;;;3.40;;
52574;SDS011;38468;48.114;-1.684;2023-09-30T05:44:00;10.57;;;2.72;;
52574;SDS011;38468;48.114;-1.684;2023-09-30T05:46:01;5.55;;;2.25;;
52574;SDS011;38468;48.114;-1.684;2023-09-30T05:48:02;14.75;;;4.68;;
52574;SDS011;38468;48.114;-1.684;2023-09-30T05:50:06;10.27;;;2.70;;
52574;SDS011;38468;48.114;-1.684;2023-09-30T05:52:08;4.22;;;2.47;;
52574;SDS011;38468;48.114;-1.684;2023-09-30T05:54:09;7.85;;;2.53;;
52574;SDS011;38468;48.114;-1.684;2023-09-30T05:56:10;5.82;;;2.45;;
52574;SDS011;38468;48.114;-1.684;2023-09-30T05:58:14;4.13;;;2.40;;
52574;SDS011;38468;48.114;-1.684;2023-09-30T06:00:16;17.40;;;3.42;;
52574;SDS011;38468;48.114;-1.684;2023-09-30T06:02:21;8.93;;;3.33;;
52574;SDS011;38468;48.114;-1.684;2023-09-30T06:04:27;6.38;;;3.00;;
52574;SDS011;38468;48.114;-1.684;2023-09-30T06:06:27;17.23;;;7.60;;
52574;SDS011;38468;48.114;-1.684;2023-09-30T06:09:34;14.82;;;3.63;;
52574;SDS011;38468;48.114;-1.684;2023-09-30T06:11:34;8.90;;;2.85;;
52574;SDS011;38468;48.114;-1.684;2023-09-30T06:13:36;9.82;;;3.50;;
52574;SDS011;38468;48.114;-1.684;2023-09-30T06:15:37;6.75;;;2.63;;
52574;SDS011;38468;48.114;-1.684;2023-09-30T06:17:41;11.02;;;2.85;;
52574;SDS011;38468;48.114;-1.684;2023-09-30T06:19:42;12.07;;;2.90;;
52574;SDS011;38468;48.114;-1.684;2023-09-30T06:21:43;5.88;;;2.70;;
52574;SDS011;38468;48.114;-1.684;2023-09-30T06:23:44;8.02;;;3.33;;
52574;SDS011;38468;48.114;-1.684;2023-09-30T06:25:44;11.95;;;3.33;;
52574;SDS011;38468;48.114;-1.684;2023-09-30T06:27:45;8.05;;;2.55;;
52574;SDS011;38468;48.114;-1.684;2023-09-30T06:29:47;6.53;;;2.63;;
52574;SDS011;38468;48.114;-1.684;2023-09-30T06:31:47;11.20;;;3.20;;
52574;SDS011;38468;48.114;-1.684;2023-09-30T06:33:48;3.65;;;2.45;;
52574;SDS011;38468;48.114;-1.684;2023-09-30T06:35:49;12.18;;;2.97;;
52574;SDS011;38468;48.114;-1.684;2023-09-30T06:37:52;7.40;;;2.03;;
52574;SDS011;38468;48.114;-1.684;2023-09-30T06:39:53;8.18;;;2.28;;
52574;SDS011;38468;48.114;-1.684;2023-09-30T06:41:54;7.82;;;2.47;;
52574;SDS011;38468;48.114;-1.684;2023-09-30T06:43:54;8.45;;;2.78;;
52574;SDS011;38468;48.114;-1.684;2023-09-30T06:45:55;7.38;;;2.83;;
52574;SDS011;38468;48.114;-1.684;2023-09-30T06:47:55;12.23;;;3.00;;
52574;SDS011;38468;48.114;-1.684;2023-09-30T06:49:57;8.10;;;2.22;;
52574;SDS011;38468;48.114;-1.684;2023-09-30T06:51:58;7.07;;;2.33;;
52574;SDS011;38468;48.114;-1.684;2023-09-30T06:53:59;9.15;;;3.47;;
52574;SDS011;38468;48.114;-1.684;2023-09-30T06:56:04;4.80;;;2.33;;
52574;SDS011;38468;48.114;-1.684;2023-09-30T06:58:06;7.72;;;2.00;;
52574;SDS011;38468;48.114;-1.684;2023-09-30T07:00:11;6.18;;;2.88;;
52574;SDS011;38468;48.114;-1.684;2023-09-30T07:02:13;9.93;;;2.40;;
52574;SDS011;38468;48.114;-1.684;2023-09-30T07:06:53;15.07;;;4.05;;
52574;SDS011;38468;48.114;-1.684;2023-09-30T07:08:54;8.38;;;2.72;;
52574;SDS011;38468;48.114;-1.684;2023-09-30T07:10:54;11.18;;;2.70;;
52574;SDS011;38468;48.114;-1.684;2023-09-30T07:12:56;14.90;;;3.22;;
52574;SDS011;38468;48.114;-1.684;2023-09-30T07:14:58;6.03;;;2.95;;
52574;SDS011;38468;48.114;-1.684;2023-09-30T07:16:59;8.15;;;2.83;;
52574;SDS011;38468;48.114;-1.684;2023-09-30T07:19:00;14.43;;;3.20;;
52574;SDS011;38468;48.114;-1.684;2023-09-30T07:21:00;10.23;;;3.30;;
52574;SDS011;38468;48.114;-1.684;2023-09-30T07:23:01;7.57;;;2.60;;
52574;SDS011;38468;48.114;-1.684;2023-09-30T07:25:03;12.05;;;3.58;;
52574;SDS011;38468;48.114;-1.684;2023-09-30T07:27:04;10.98;;;3.53;;
52574;SDS011;38468;48.114;-1.684;2023-09-30T07:29:05;12.27;;;3.58;;
52574;SDS011;38468;48.114;-1.684;2023-09-30T07:31:05;14.32;;;4.18;;
52574;SDS011;38468;48.114;-1.684;2023-09-30T07:33:06;10.80;;;3.30;;
52574;SDS011;38468;48.114;-1.684;2023-09-30T07:35:07;5.50;;;3.33;;
52574;SDS011;38468;48.114;-1.684;2023-09-30T07:37:08;6.67;;;3.80;;
52574;SDS011;38468;48.114;-1.684;2023-09-30T07:39:09;11.65;;;3.78;;
52574;SDS011;38468;48.114;-1.684;2023-09-30T07:41:10;10.35;;;4.70;;
52574;SDS011;38468;48.114;-1.684;2023-09-30T07:43:10;6.97;;;3.28;;
52574;SDS011;38468;48.114;-1.684;2023-09-30T07:45:12;9.63;;;2.97;;
52574;SDS011;38468;48.114;-1.684;2023-09-30T07:47:16;10.48;;;3.05;;
52574;SDS011;38468;48.114;-1.684;2023-09-30T07:49:22;15.35;;;4.75;;
52574;SDS011;38468;48.114;-1.684;2023-09-30T07:51:24;7.80;;;3.28;;
52574;SDS011;38468;48.114;-1.684;2023-09-30T07:53:24;7.32;;;3.45;;
52574;SDS011;38468;48.114;-1.684;2023-09-30T07:55:25;10.40;;;4.03;;
52574;SDS011;38468;48.114;-1.684;2023-09-30T07:57:26;11.95;;;3.90;;
52574;SDS011;38468;48.114;-1.684;2023-09-30T07:59:27;16.77;;;3.33;;
52574;SDS011;38468;48.114;-1.684;2023-09-30T08:01:27;7.80;;;3.65;;
52574;SDS011;38468;48.114;-1.684;2023-09-30T08:03:30;14.68;;;3.80;;
52574;SDS011;38468;48.114;-1.684;2023-09-30T08:05:43;7.13;;;3.58;;
52574;SDS011;38468;48.114;-1.684;2023-09-30T08:07:44;10.60;;;4.10;;
52574;SDS011;38468;48.114;-1.684;2023-09-30T08:09:47;12.50;;;4.35;;
52574;SDS011;38468;48.114;-1.684;2023-09-30T08:11:47;10.85;;;4.22;;
52574;SDS011;38468;48.114;-1.684;2023-09-30T08:13:48;9.55;;;3.95;;
52574;SDS011;38468;48.114;-1.684;2023-09-30T08:15:49;13.07;;;4.90;;
52574;SDS011;38468;48.114;-1.684;2023-09-30T08:17:51;13.40;;;4.45;;
52574;SDS011;38468;48.114;-1.684;2023-09-30T08:19:53;11.85;;;3.55;;
52574;SDS011;38468;48.114;-1.684;2023-09-30T08:21:54;7.25;;;2.70;;
52574;SDS011;38468;48.114;-1.684;2023-09-30T08:23:54;11.02;;;4.35;;
52574;SDS011;38468;48.114;-1.684;2023-09-30T08:25:57;8.07;;;4.25;;
52574;SDS011;38468;48.114;-1.684;2023-09-30T08:27:59;12.68;;;4.40;;
52574;SDS011;38468;48.114;-1.684;2023-09-30T08:30:00;7.40;;;3.13;;
52574;SDS011;38468;48.114;-1.684;2023-09-30T08:32:05;7.90;;;2.70;;
52574;SDS011;38468;48.114;-1.684;2023-09-30T08:34:07;11.65;;;4.03;;
52574;SDS011;38468;48.114;-1.684;2023-09-30T08:36:14;11.95;;;3.33;;
52574;SDS011;38468;48.114;-1.684;2023-09-30T08:38:15;9.05;;;2.97;;
52574;SDS011;38468;48.114;-1.684;2023-09-30T08:40:19;9.65;;;3.50;;
52574;SDS011;38468;48.114;-1.684;2023-09-30T08:42:21;9.98;;;3.28;;
52574;SDS011;38468;48.114;-1.684;2023-09-30T08:44:24;9.85;;;4.07;;
52574;SDS011;38468;48.114;-1.684;2023-09-30T08:46:26;7.13;;;3.83;;
52574;SDS011;38468;48.114;-1.684;2023-09-30T08:48:33;11.55;;;4.38;;
52574;SDS011;38468;48.114;-1.684;2023-09-30T08:50:34;9.70;;;4.15;;
52574;SDS011;38468;48.114;-1.684;2023-09-30T08:52:43;11.65;;;4.00;;
52574;SDS011;38468;48.114;-1.684;2023-09-30T08:54:44;11.20;;;4.20;;
52574;SDS011;38468;48.114;-1.684;2023-09-30T08:56:47;9.40;;;3.92;;
52574;SDS011;38468;48.114;-1.684;2023-09-30T08:58:49;10.63;;;3.70;;
52574;SDS011;38468;48.114;-1.684;2023-09-30T09:00:50;6.72;;;3.55;;
52574;SDS011;38468;48.114;-1.684;2023-09-30T09:02:52;7.72;;;3.13;;
52574;SDS011;38468;48.114;-1.684;2023-09-30T09:04:52;12.90;;;4.47;;
52574;SDS011;38468;48.114;-1.684;2023-09-30T09:06:53;9.85;;;3.33;;
52574;SDS011;38468;48.114;-1.684;2023-09-30T09:08:55;11.65;;;3.67;;
52574;SDS011;38468;48.114;-1.684;2023-09-30T09:11:14;10.43;;;4.43;;
52574;SDS011;38468;48.114;-1.684;2023-09-30T09:13:15;12.03;;;3.50;;
52574;SDS011;38468;48.114;-1.684;2023-09-30T09:15:25;11.90;;;4.97;;
52574;SDS011;38468;48.114;-1.684;2023-09-30T09:17:43;10.32;;;4.50;;
52574;SDS011;38468;48.114;-1.684;2023-09-30T09:19:51;13.98;;;5.47;;
52574;SDS011;38468;48.114;-1.684;2023-09-30T09:22:00;10.27;;;4.05;;
52574;SDS011;38468;48.114;-1.684;2023-09-30T09:24:04;8.95;;;4.20;;
52574;SDS011;38468;48.114;-1.684;2023-09-30T09:26:05;14.15;;;4.95;;
52574;SDS011;38468;48.114;-1.684;2023-09-30T09:28:07;12.70;;;4.60;;
52574;SDS011;38468;48.114;-1.684;2023-09-30T09:30:18;11.70;;;4.85;;
52574;SDS011;38468;48.114;-1.684;2023-09-30T09:32:19;9.88;;;4.85;;
52574;SDS011;38468;48.114;-1.684;2023-09-30T09:34:21;10.73;;;4.43;;
52574;SDS011;38468;48.114;-1.684;2023-09-30T09:36:22;10.82;;;5.53;;
52574;SDS011;38468;48.114;-1.684;2023-09-30T09:38:44;7.28;;;3.95;;
52574;SDS011;38468;48.114;-1.684;2023-09-30T09:40:58;12.65;;;4.90;;
52574;SDS011;38468;48.114;-1.684;2023-09-30T09:42:59;6.63;;;2.95;;
52574;SDS011;38468;48.114;-1.684;2023-09-30T09:45:05;9.90;;;4.03;;
52574;SDS011;38468;48.114;-1.684;2023-09-30T09:47:06;6.30;;;4.23;;
52574;SDS011;38468;48.114;-1.684;2023-09-30T09:49:07;8.82;;;4.88;;
52574;SDS011;38468;48.114;-1.684;2023-09-30T09:51:08;12.00;;;6.15;;
52574;SDS011;38468;48.114;-1.684;2023-09-30T09:53:10;9.02;;;5.05;;
52574;SDS011;38468;48.114;-1.684;2023-09-30T09:55:13;8.13;;;3.50;;
52574;SDS011;38468;48.114;-1.684;2023-09-30T09:57:19;10.30;;;4.53;;
52574;SDS011;38468;48.114;-1.684;2023-09-30T09:59:20;13.82;;;5.78;;
52574;SDS011;38468;48.114;-1.684;2023-09-30T10:01:24;11.18;;;4.28;;
52574;SDS011;38468;48.114;-1.684;2023-09-30T10:03:27;12.75;;;5.85;;
52574;SDS011;38468;48.114;-1.684;2023-09-30T10:05:28;12.32;;;5.45;;
52574;SDS011;38468;48.114;-1.684;2023-09-30T10:07:30;11.98;;;4.47;;
52574;SDS011;38468;48.114;-1.684;2023-09-30T10:09:36;6.00;;;3.35;;
52574;SDS011;38468;48.114;-1.684;2023-09-30T10:11:40;17.40;;;5.78;;
52574;SDS011;38468;48.114;-1.684;2023-09-30T10:13:57;13.65;;;4.85;;
52574;SDS011;38468;48.114;-1.684;2023-09-30T10:16:03;11.20;;;5.97;;
52574;SDS011;38468;48.114;-1.684;2023-09-30T10:18:07;21.90;;;5.45;;
52574;SDS011;38468;48.114;-1.684;2023-09-30T10:20:12;12.98;;;8.55;;
52574;SDS011;38468;48.114;-1.684;2023-09-30T10:26:24;10.30;;;4.72;;
52574;SDS011;38468;48.114;-1.684;2023-09-30T10:28:31;11.75;;;6.90;;
52574;SDS011;38468;48.114;-1.684;2023-09-30T10:33:12;9.88;;;4.45;;
52574;SDS011;38468;48.114;-1.684;2023-09-30T10:35:14;11.20;;;4.45;;
52574;SDS011;38468;48.114;-1.684;2023-09-30T10:37:20;10.25;;;4.32;;
52574;SDS011;38468;48.114;-1.684;2023-09-30T10:39:52;11.85;;;5.28;;
52574;SDS011;38468;48.114;-1.684;2023-09-30T10:41:58;16.33;;;6.30;;
52574;SDS011;38468;48.114;-1.684;2023-09-30T10:43:59;13.65;;;5.55;;
52574;SDS011;38468;48.114;-1.684;2023-09-30T10:52:54;10.75;;;5.97;;
52574;SDS011;38468;48.114;-1.684;2023-09-30T10:55:03;12.85;;;4.63;;
52574;SDS011;38468;48.114;-1.684;2023-09-30T10:57:05;16.13;;;6.20;;
52574;SDS011;38468;48.114;-1.684;2023-09-30T10:59:06;15.95;;;5.95;;
52574;SDS011;38468;48.114;-1.684;2023-09-30T11:01:06;12.63;;;5.87;;
52574;SDS011;38468;48.114;-1.684;2023-09-30T11:03:07;9.70;;;4.97;;
52574;SDS011;38468;48.114;-1.684;2023-09-30T11:05:12;11.65;;;5.70;;
52574;SDS011;38468;48.114;-1.684;2023-09-30T11:07:16;10.43;;;4.43;;
52574;SDS011;38468;48.114;-1.684;2023-09-30T11:09:22;11.93;;;6.43;;
52574;SDS011;38468;48.114;-1.684;2023-09-30T11:13:37;12.38;;;6.68;;
52574;SDS011;38468;48.114;-1.684;2023-09-30T11:15:39;18.98;;;7.05;;
52574;SDS011;38468;48.114;-1.684;2023-09-30T11:17:39;16.13;;;6.07;;
52574;SDS011;38468;48.114;-1.684;2023-09-30T11:19:46;14.37;;;6.10;;
52574;SDS011;38468;48.114;-1.684;2023-09-30T11:21:52;10.32;;;5.78;;
52574;SDS011;38468;48.114;-1.684;2023-09-30T11:23:54;12.45;;;5.90;;
52574;SDS011;38468;48.114;-1.684;2023-09-30T11:25:56;18.73;;;6.82;;
52574;SDS011;38468;48.114;-1.684;2023-09-30T11:28:12;17.33;;;6.37;;
52574;SDS011;38468;48.114;-1.684;2023-09-30T11:30:13;10.63;;;4.95;;
52574;SDS011;38468;48.114;-1.684;2023-09-30T11:32:24;10.00;;;4.65;;
52574;SDS011;38468;48.114;-1.684;2023-09-30T11:34:35;8.27;;;4.15;;
52574;SDS011;38468;48.114;-1.684;2023-09-30T11:36:38;10.88;;;4.75;;
52574;SDS011;38468;48.114;-1.684;2023-09-30T11:38:45;9.73;;;4.18;;
52574;SDS011;38468;48.114;-1.684;2023-09-30T11:40:57;7.45;;;4.15;;
52574;SDS011;38468;48.114;-1.684;2023-09-30T11:45:19;7.18;;;4.13;;
52574;SDS011;38468;48.114;-1.684;2023-09-30T11:47:28;12.65;;;6.30;;
52574;SDS011;38468;48.114;-1.684;2023-09-30T11:49:34;13.63;;;6.75;;
52574;SDS011;38468;48.114;-1.684;2023-09-30T11:51:53;15.75;;;5.97;;
52574;SDS011;38468;48.114;-1.684;2023-09-30T11:53:55;16.15;;;7.60;;
52574;SDS011;38468;48.114;-1.684;2023-09-30T11:55:59;12.00;;;6.68;;
52574;SDS011;38468;48.114;-1.684;2023-09-30T11:58:00;13.35;;;5.82;;
52574;SDS011;38468;48.114;-1.684;2023-09-30T12:00:00;9.43;;;4.77;;
52574;SDS011;38468;48.114;-1.684;2023-09-30T12:02:05;13.15;;;7.80;;
52574;SDS011;38468;48.114;-1.684;2023-09-30T12:04:06;16.73;;;7.20;;
52574;SDS011;38468;48.114;-1.684;2023-09-30T12:06:08;9.38;;;4.72;;
52574;SDS011;38468;48.114;-1.684;2023-09-30T12:08:13;11.43;;;5.60;;
52574;SDS011;38468;48.114;-1.684;2023-09-30T12:10:14;11.90;;;5.90;;
52574;SDS011;38468;48.114;-1.684;2023-09-30T12:12:15;13.90;;;4.60;;
52574;SDS011;38468;48.114;-1.684;2023-09-30T12:14:16;13.48;;;6.97;;
52574;SDS011;38468;48.114;-1.684;2023-09-30T12:16:17;16.30;;;5.97;;
52574;SDS011;38468;48.114;-1.684;2023-09-30T12:18:18;11.70;;;4.90;;
52574;SDS011;38468;48.114;-1.684;2023-09-30T12:20:23;11.65;;;3.78;;
52574;SDS011;38468;48.114;-1.684;2023-09-30T12:22:25;10.52;;;6.03;;
52574;SDS011;38468;48.114;-1.684;2023-09-30T12:24:25;10.23;;;4.87;;
52574;SDS011;38468;48.114;-1.684;2023-09-30T12:26:26;11.23;;;4.70;;
52574;SDS011;38468;48.114;-1.684;2023-09-30T12:28:27;9.57;;;4.80;;
52574;SDS011;38468;48.114;-1.684;2023-09-30T12:30:32;10.32;;;5.95;;
52574;SDS011;38468;48.114;-1.684;2023-09-30T12:32:32;12.43;;;6.37;;
52574;SDS011;38468;48.114;-1.684;2023-09-30T12:34:33;13.20;;;6.45;;
52574;SDS011;38468;48.114;-1.684;2023-09-30T12:36:34;21.80;;;6.97;;
52574;SDS011;38468;48.114;-1.684;2023-09-30T12:38:34;8.43;;;5.67;;
52574;SDS011;38468;48.114;-1.684;2023-09-30T12:40:35;13.40;;;6.47;;
52574;SDS011;38468;48.114;-1.684;2023-09-30T12:42:36;10.27;;;4.73;;
52574;SDS011;38468;48.114;-1.684;2023-09-30T12:44:36;17.23;;;7.37;;
52574;SDS011;38468;48.114;-1.684;2023-09-30T12:46:38;11.10;;;5.23;;
52574;SDS011;38468;48.114;-1.684;2023-09-30T12:48:40;9.40;;;3.80;;
52574;SDS011;38468;48.114;-1.684;2023-09-30T12:50:41;10.20;;;5.05;;
52574;SDS011;38468;48.114;-1.684;2023-09-30T12:52:41;14.18;;;7.25;;
52574;SDS011;38468;48.114;-1.684;2023-09-30T12:54:42;16.33;;;6.97;;
52574;SDS011;38468;48.114;-1.684;2023-09-30T12:56:43;10.17;;;6.27;;
52574;SDS011;38468;48.114;-1.684;2023-09-30T12:58:43;13.47;;;6.30;;
52574;SDS011;38468;48.114;-1.684;2023-09-30T13:00:44;13.50;;;6.23;;
52574;SDS011;38468;48.114;-1.684;2023-09-30T13:02:45;11.57;;;3.97;;
52574;SDS011;38468;48.114;-1.684;2023-09-30T13:04:46;13.77;;;7.65;;
52574;SDS011;38468;48.114;-1.684;2023-09-30T13:06:47;13.13;;;6.72;;